Fort Yukon Airport Fort Yukon US
ICAO: PFYU
IATA:
Category: Medium
Scheduled Services:

Elevation: 433 ft
TransAlt. 18000 ft.

Airport Communications:
AWOS 3:125.8
ANCHORAGE CNTR:135
CTAF:122.5
FAIRBANKS RDO:122.1
EIELSON RANGE CON:125.3
TWEB:114.4

PFYU Zoom In..

Runways:

(A) RW 04 length 5000 ft width 100 ft
---- / hdg 35

(B) RW 22 length 5000 ft width 100 ft
---- / hdg 215

Location; PFYU
Day. 19 / Time. 02.56 Zulu
* Altimeter: 30.00
* Temperature: 18° c. 64.4°f.
* Wind from: 250° Speed 08 kn with Gusts up to 15 kn.
Dewpoint: 07° c.
Visibility: 10 Statute Miles.
Clouds: Scattered 7500 ft.
Clouds: Broken 11000 ft.

PFYU 190256Z 25008G15KT 10SM SCT075 BKN110 18/07 A3000 RMK AO2 SLP180 T01830067 58001


Wind From 250°
Speed 08 kn.

 
 
jpsmedia.com for Web Design worldairports.se 2018   terms of use